sensor_id;sensor_type;location;lat;lon;timestamp;P1;durP1;ratioP1;P2;durP2;ratioP2
26157;SDS011;67284;44.782;10.282;2024-02-23T00:01:02;71.18;;;33.00;;
26157;SDS011;67284;44.782;10.282;2024-02-23T00:05:54;70.60;;;33.80;;
26157;SDS011;67284;44.782;10.282;2024-02-23T00:10:46;67.40;;;32.40;;
26157;SDS011;67284;44.782;10.282;2024-02-23T00:15:39;64.35;;;31.60;;
26157;SDS011;67284;44.782;10.282;2024-02-23T00:20:30;62.00;;;31.77;;
26157;SDS011;67284;44.782;10.282;2024-02-23T00:25:22;66.47;;;32.15;;
26157;SDS011;67284;44.782;10.282;2024-02-23T00:30:14;58.95;;;30.38;;
26157;SDS011;67284;44.782;10.282;2024-02-23T00:35:06;64.13;;;32.42;;
26157;SDS011;67284;44.782;10.282;2024-02-23T00:39:58;65.20;;;32.22;;
26157;SDS011;67284;44.782;10.282;2024-02-23T00:44:50;58.45;;;29.33;;
26157;SDS011;67284;44.782;10.282;2024-02-23T00:49:42;62.47;;;30.52;;
26157;SDS011;67284;44.782;10.282;2024-02-23T00:54:34;64.00;;;32.08;;
26157;SDS011;67284;44.782;10.282;2024-02-23T00:59:26;54.85;;;28.17;;
26157;SDS011;67284;44.782;10.282;2024-02-23T01:04:18;54.83;;;29.20;;
26157;SDS011;67284;44.782;10.282;2024-02-23T01:09:10;61.53;;;29.33;;
26157;SDS011;67284;44.782;10.282;2024-02-23T01:14:02;58.95;;;30.00;;
26157;SDS011;67284;44.782;10.282;2024-02-23T01:18:53;58.13;;;29.50;;
26157;SDS011;67284;44.782;10.282;2024-02-23T01:23:45;60.70;;;29.35;;
26157;SDS011;67284;44.782;10.282;2024-02-23T01:28:37;57.85;;;30.40;;
26157;SDS011;67284;44.782;10.282;2024-02-23T01:33:29;52.13;;;29.52;;
26157;SDS011;67284;44.782;10.282;2024-02-23T01:38:21;56.03;;;28.40;;
26157;SDS011;67284;44.782;10.282;2024-02-23T01:43:13;62.45;;;28.67;;
26157;SDS011;67284;44.782;10.282;2024-02-23T01:48:05;60.47;;;30.05;;
26157;SDS011;67284;44.782;10.282;2024-02-23T01:53:00;55.08;;;26.55;;
26157;SDS011;67284;44.782;10.282;2024-02-23T01:57:56;57.50;;;29.77;;
26157;SDS011;67284;44.782;10.282;2024-02-23T02:02:48;51.83;;;27.23;;
26157;SDS011;67284;44.782;10.282;2024-02-23T02:07:41;51.95;;;27.27;;
26157;SDS011;67284;44.782;10.282;2024-02-23T02:12:33;56.05;;;27.15;;
26157;SDS011;67284;44.782;10.282;2024-02-23T02:17:25;61.80;;;29.85;;
26157;SDS011;67284;44.782;10.282;2024-02-23T02:22:17;56.80;;;28.85;;
26157;SDS011;67284;44.782;10.282;2024-02-23T02:27:09;52.17;;;27.83;;
26157;SDS011;67284;44.782;10.282;2024-02-23T02:32:01;57.10;;;29.02;;
26157;SDS011;67284;44.782;10.282;2024-02-23T02:36:53;51.28;;;28.25;;
26157;SDS011;67284;44.782;10.282;2024-02-23T02:41:45;54.25;;;27.75;;
26157;SDS011;67284;44.782;10.282;2024-02-23T02:46:40;47.83;;;25.55;;
26157;SDS011;67284;44.782;10.282;2024-02-23T02:51:32;54.83;;;26.33;;
26157;SDS011;67284;44.782;10.282;2024-02-23T02:56:24;52.05;;;26.60;;
26157;SDS011;67284;44.782;10.282;2024-02-23T03:01:16;46.97;;;25.05;;
26157;SDS011;67284;44.782;10.282;2024-02-23T03:06:08;45.70;;;23.70;;
26157;SDS011;67284;44.782;10.282;2024-02-23T03:11:00;44.28;;;22.77;;
26157;SDS011;67284;44.782;10.282;2024-02-23T03:15:52;38.10;;;21.77;;
26157;SDS011;67284;44.782;10.282;2024-02-23T03:20:44;33.08;;;20.27;;
26157;SDS011;67284;44.782;10.282;2024-02-23T03:25:36;42.85;;;20.65;;
26157;SDS011;67284;44.782;10.282;2024-02-23T03:30:28;36.78;;;19.58;;
26157;SDS011;67284;44.782;10.282;2024-02-23T03:35:22;37.10;;;19.98;;
26157;SDS011;67284;44.782;10.282;2024-02-23T03:40:14;28.77;;;16.63;;
26157;SDS011;67284;44.782;10.282;2024-02-23T03:45:06;29.23;;;16.50;;
26157;SDS011;67284;44.782;10.282;2024-02-23T03:49:59;23.70;;;13.55;;
26157;SDS011;67284;44.782;10.282;2024-02-23T03:54:51;25.35;;;14.02;;
26157;SDS011;67284;44.782;10.282;2024-02-23T03:59:53;24.25;;;14.77;;
26157;SDS011;67284;44.782;10.282;2024-02-23T04:04:45;24.08;;;14.02;;
26157;SDS011;67284;44.782;10.282;2024-02-23T04:09:37;21.67;;;12.95;;
26157;SDS011;67284;44.782;10.282;2024-02-23T04:14:29;25.35;;;12.70;;
26157;SDS011;67284;44.782;10.282;2024-02-23T04:19:21;21.23;;;12.15;;
26157;SDS011;67284;44.782;10.282;2024-02-23T04:24:13;20.40;;;11.60;;
26157;SDS011;67284;44.782;10.282;2024-02-23T04:29:05;20.70;;;12.60;;
26157;SDS011;67284;44.782;10.282;2024-02-23T04:33:57;22.27;;;11.40;;
26157;SDS011;67284;44.782;10.282;2024-02-23T04:38:48;18.48;;;11.00;;
26157;SDS011;67284;44.782;10.282;2024-02-23T04:43:40;20.90;;;11.38;;
26157;SDS011;67284;44.782;10.282;2024-02-23T04:48:32;17.95;;;10.35;;
26157;SDS011;67284;44.782;10.282;2024-02-23T04:53:24;15.60;;;10.43;;
26157;SDS011;67284;44.782;10.282;2024-02-23T04:58:16;17.85;;;9.45;;
26157;SDS011;67284;44.782;10.282;2024-02-23T05:03:08;15.75;;;9.00;;
26157;SDS011;67284;44.782;10.282;2024-02-23T05:08:03;15.25;;;9.57;;
26157;SDS011;67284;44.782;10.282;2024-02-23T05:12:55;13.82;;;9.50;;
26157;SDS011;67284;44.782;10.282;2024-02-23T05:17:47;14.98;;;8.75;;
26157;SDS011;67284;44.782;10.282;2024-02-23T05:22:39;20.52;;;11.35;;
26157;SDS011;67284;44.782;10.282;2024-02-23T05:27:31;24.10;;;11.38;;
26157;SDS011;67284;44.782;10.282;2024-02-23T05:32:23;21.33;;;11.85;;
26157;SDS011;67284;44.782;10.282;2024-02-23T05:37:16;22.88;;;12.73;;
26157;SDS011;67284;44.782;10.282;2024-02-23T05:42:07;26.60;;;15.13;;
26157;SDS011;67284;44.782;10.282;2024-02-23T05:46:59;27.35;;;15.93;;
26157;SDS011;67284;44.782;10.282;2024-02-23T05:51:51;32.42;;;17.42;;
26157;SDS011;67284;44.782;10.282;2024-02-23T05:56:44;31.80;;;17.52;;
26157;SDS011;67284;44.782;10.282;2024-02-23T06:01:37;36.83;;;19.40;;
26157;SDS011;67284;44.782;10.282;2024-02-23T06:06:29;29.83;;;17.58;;
26157;SDS011;67284;44.782;10.282;2024-02-23T06:11:21;32.25;;;17.65;;
26157;SDS011;67284;44.782;10.282;2024-02-23T06:16:13;32.10;;;17.08;;
26157;SDS011;67284;44.782;10.282;2024-02-23T06:21:14;30.08;;;17.58;;
26157;SDS011;67284;44.782;10.282;2024-02-23T06:26:06;29.10;;;16.88;;
26157;SDS011;67284;44.782;10.282;2024-02-23T06:30:58;30.05;;;17.88;;
26157;SDS011;67284;44.782;10.282;2024-02-23T06:35:50;32.47;;;16.55;;
26157;SDS011;67284;44.782;10.282;2024-02-23T06:40:43;37.28;;;21.05;;
26157;SDS011;67284;44.782;10.282;2024-02-23T06:45:42;41.42;;;21.27;;
26157;SDS011;67284;44.782;10.282;2024-02-23T06:50:35;51.92;;;24.67;;
26157;SDS011;67284;44.782;10.282;2024-02-23T06:55:27;40.47;;;21.92;;
26157;SDS011;67284;44.782;10.282;2024-02-23T07:00:20;37.72;;;21.95;;
26157;SDS011;67284;44.782;10.282;2024-02-23T07:05:13;28.20;;;18.20;;
26157;SDS011;67284;44.782;10.282;2024-02-23T07:10:06;34.00;;;20.60;;
26157;SDS011;67284;44.782;10.282;2024-02-23T07:14:58;28.95;;;18.52;;
26157;SDS011;67284;44.782;10.282;2024-02-23T07:19:50;30.52;;;19.27;;
26157;SDS011;67284;44.782;10.282;2024-02-23T07:24:43;28.90;;;17.65;;
26157;SDS011;67284;44.782;10.282;2024-02-23T07:29:35;32.38;;;18.25;;
26157;SDS011;67284;44.782;10.282;2024-02-23T07:34:27;32.83;;;18.15;;
26157;SDS011;67284;44.782;10.282;2024-02-23T07:39:19;26.33;;;16.33;;
26157;SDS011;67284;44.782;10.282;2024-02-23T07:44:13;27.52;;;17.17;;
26157;SDS011;67284;44.782;10.282;2024-02-23T07:49:05;26.30;;;17.73;;
26157;SDS011;67284;44.782;10.282;2024-02-23T07:54:00;30.73;;;18.52;;
26157;SDS011;67284;44.782;10.282;2024-02-23T07:58:51;24.70;;;17.42;;
26157;SDS011;67284;44.782;10.282;2024-02-23T08:03:43;25.00;;;16.20;;
26157;SDS011;67284;44.782;10.282;2024-02-23T08:08:35;21.80;;;14.63;;
26157;SDS011;67284;44.782;10.282;2024-02-23T08:13:27;19.13;;;14.30;;
26157;SDS011;67284;44.782;10.282;2024-02-23T08:18:19;19.92;;;13.45;;
26157;SDS011;67284;44.782;10.282;2024-02-23T08:23:15;16.90;;;11.98;;
26157;SDS011;67284;44.782;10.282;2024-02-23T08:28:07;16.45;;;12.40;;
26157;SDS011;67284;44.782;10.282;2024-02-23T08:32:59;15.27;;;10.52;;
26157;SDS011;67284;44.782;10.282;2024-02-23T08:37:51;12.48;;;9.18;;
26157;SDS011;67284;44.782;10.282;2024-02-23T08:42:43;14.43;;;9.40;;
26157;SDS011;67284;44.782;10.282;2024-02-23T08:47:35;12.15;;;8.93;;
26157;SDS011;67284;44.782;10.282;2024-02-23T08:52:27;13.25;;;8.52;;
26157;SDS011;67284;44.782;10.282;2024-02-23T08:57:19;11.43;;;8.07;;
26157;SDS011;67284;44.782;10.282;2024-02-23T09:02:11;12.75;;;8.75;;
26157;SDS011;67284;44.782;10.282;2024-02-23T09:07:04;10.43;;;8.25;;
26157;SDS011;67284;44.782;10.282;2024-02-23T09:11:56;12.25;;;8.35;;
26157;SDS011;67284;44.782;10.282;2024-02-23T09:16:48;10.75;;;8.88;;
26157;SDS011;67284;44.782;10.282;2024-02-23T09:21:42;15.07;;;10.32;;
26157;SDS011;67284;44.782;10.282;2024-02-23T09:26:34;13.23;;;9.40;;
26157;SDS011;67284;44.782;10.282;2024-02-23T09:31:26;12.43;;;9.82;;
26157;SDS011;67284;44.782;10.282;2024-02-23T09:36:19;12.00;;;8.95;;
26157;SDS011;67284;44.782;10.282;2024-02-23T09:41:14;10.65;;;8.80;;
26157;SDS011;67284;44.782;10.282;2024-02-23T09:46:10;11.68;;;8.93;;
26157;SDS011;67284;44.782;10.282;2024-02-23T09:51:03;14.32;;;10.80;;
26157;SDS011;67284;44.782;10.282;2024-02-23T09:55:57;14.32;;;9.23;;
26157;SDS011;67284;44.782;10.282;2024-02-23T10:00:51;11.77;;;7.93;;
26157;SDS011;67284;44.782;10.282;2024-02-23T10:05:44;17.10;;;11.63;;
26157;SDS011;67284;44.782;10.282;2024-02-23T10:10:37;16.52;;;10.82;;
26157;SDS011;67284;44.782;10.282;2024-02-23T10:15:30;13.10;;;9.60;;
26157;SDS011;67284;44.782;10.282;2024-02-23T10:20:22;17.10;;;10.25;;
26157;SDS011;67284;44.782;10.282;2024-02-23T10:25:14;13.20;;;9.20;;
26157;SDS011;67284;44.782;10.282;2024-02-23T10:30:07;10.27;;;7.35;;
26157;SDS011;67284;44.782;10.282;2024-02-23T10:35:02;11.88;;;8.10;;
26157;SDS011;67284;44.782;10.282;2024-02-23T10:39:57;12.48;;;8.27;;
26157;SDS011;67284;44.782;10.282;2024-02-23T10:44:52;10.50;;;7.35;;
26157;SDS011;67284;44.782;10.282;2024-02-23T10:49:44;10.32;;;6.97;;
26157;SDS011;67284;44.782;10.282;2024-02-23T10:54:37;10.02;;;7.03;;
26157;SDS011;67284;44.782;10.282;2024-02-23T10:59:30;9.05;;;6.85;;
26157;SDS011;67284;44.782;10.282;2024-02-23T11:04:22;9.55;;;7.35;;
26157;SDS011;67284;44.782;10.282;2024-02-23T11:09:15;9.20;;;7.18;;
26157;SDS011;67284;44.782;10.282;2024-02-23T11:14:07;11.15;;;6.65;;
26157;SDS011;67284;44.782;10.282;2024-02-23T11:19:06;14.40;;;8.95;;
26157;SDS011;67284;44.782;10.282;2024-02-23T11:24:03;11.07;;;7.50;;
26157;SDS011;67284;44.782;10.282;2024-02-23T11:28:56;10.43;;;7.38;;
26157;SDS011;67284;44.782;10.282;2024-02-23T11:33:48;11.40;;;7.35;;
26157;SDS011;67284;44.782;10.282;2024-02-23T11:38:53;11.88;;;6.63;;
26157;SDS011;67284;44.782;10.282;2024-02-23T11:43:46;8.32;;;6.25;;
26157;SDS011;67284;44.782;10.282;2024-02-23T11:48:39;9.93;;;5.78;;
26157;SDS011;67284;44.782;10.282;2024-02-23T11:53:31;7.72;;;6.10;;
26157;SDS011;67284;44.782;10.282;2024-02-23T11:58:23;9.15;;;6.15;;
26157;SDS011;67284;44.782;10.282;2024-02-23T12:03:15;8.93;;;6.35;;
26157;SDS011;67284;44.782;10.282;2024-02-23T12:08:07;9.85;;;5.32;;
26157;SDS011;67284;44.782;10.282;2024-02-23T12:12:59;8.60;;;6.13;;
26157;SDS011;67284;44.782;10.282;2024-02-23T12:17:51;7.75;;;6.18;;
26157;SDS011;67284;44.782;10.282;2024-02-23T12:22:43;11.32;;;7.05;;
26157;SDS011;67284;44.782;10.282;2024-02-23T12:27:35;12.73;;;7.90;;
26157;SDS011;67284;44.782;10.282;2024-02-23T12:32:27;17.67;;;8.88;;
26157;SDS011;67284;44.782;10.282;2024-02-23T12:37:19;27.27;;;13.95;;
26157;SDS011;67284;44.782;10.282;2024-02-23T12:42:13;36.50;;;19.45;;
26157;SDS011;67284;44.782;10.282;2024-02-23T12:47:05;42.65;;;20.58;;
26157;SDS011;67284;44.782;10.282;2024-02-23T12:51:57;20.48;;;12.77;;
26157;SDS011;67284;44.782;10.282;2024-02-23T12:56:49;24.15;;;14.82;;
26157;SDS011;67284;44.782;10.282;2024-02-23T13:01:41;20.80;;;12.75;;
26157;SDS011;67284;44.782;10.282;2024-02-23T13:06:37;22.25;;;12.70;;
26157;SDS011;67284;44.782;10.282;2024-02-23T13:11:30;23.15;;;12.57;;
26157;SDS011;67284;44.782;10.282;2024-02-23T13:16:23;16.05;;;10.52;;
26157;SDS011;67284;44.782;10.282;2024-02-23T13:21:14;16.67;;;10.35;;
26157;SDS011;67284;44.782;10.282;2024-02-23T13:26:07;17.83;;;10.57;;
26157;SDS011;67284;44.782;10.282;2024-02-23T13:31:01;15.57;;;10.18;;
26157;SDS011;67284;44.782;10.282;2024-02-23T13:35:54;14.32;;;9.98;;
26157;SDS011;67284;44.782;10.282;2024-02-23T13:40:46;15.48;;;9.73;;
26157;SDS011;67284;44.782;10.282;2024-02-23T13:45:49;12.23;;;9.10;;
26157;SDS011;67284;44.782;10.282;2024-02-23T13:50:42;23.48;;;12.85;;
26157;SDS011;67284;44.782;10.282;2024-02-23T13:55:34;53.22;;;24.73;;
26157;SDS011;67284;44.782;10.282;2024-02-23T14:00:26;29.13;;;17.25;;
26157;SDS011;67284;44.782;10.282;2024-02-23T14:05:18;30.10;;;16.63;;
26157;SDS011;67284;44.782;10.282;2024-02-23T14:10:10;27.23;;;18.83;;
26157;SDS011;67284;44.782;10.282;2024-02-23T14:15:02;20.50;;;14.60;;
26157;SDS011;67284;44.782;10.282;2024-02-23T14:19:56;20.20;;;12.95;;
26157;SDS011;67284;44.782;10.282;2024-02-23T14:24:48;16.60;;;11.27;;
26157;SDS011;67284;44.782;10.282;2024-02-23T14:29:40;12.68;;;9.35;;
26157;SDS011;67284;44.782;10.282;2024-02-23T14:34:32;12.07;;;8.82;;
26157;SDS011;67284;44.782;10.282;2024-02-23T14:39:25;13.40;;;9.25;;
26157;SDS011;67284;44.782;10.282;2024-02-23T14:44:16;12.38;;;9.23;;
26157;SDS011;67284;44.782;10.282;2024-02-23T14:49:08;12.73;;;9.35;;
26157;SDS011;67284;44.782;10.282;2024-02-23T14:54:01;10.23;;;8.05;;
26157;SDS011;67284;44.782;10.282;2024-02-23T14:58:54;12.40;;;8.98;;
26157;SDS011;67284;44.782;10.282;2024-02-23T15:03:46;14.05;;;9.27;;
26157;SDS011;67284;44.782;10.282;2024-02-23T15:08:39;12.55;;;8.93;;
26157;SDS011;67284;44.782;10.282;2024-02-23T15:13:31;16.50;;;11.40;;
26157;SDS011;67284;44.782;10.282;2024-02-23T15:18:22;16.67;;;9.95;;
26157;SDS011;67284;44.782;10.282;2024-02-23T15:23:14;15.15;;;9.30;;
26157;SDS011;67284;44.782;10.282;2024-02-23T15:28:06;12.90;;;8.93;;
26157;SDS011;67284;44.782;10.282;2024-02-23T15:32:58;13.77;;;9.65;;
26157;SDS011;67284;44.782;10.282;2024-02-23T15:37:50;14.73;;;10.13;;
26157;SDS011;67284;44.782;10.282;2024-02-23T15:42:42;16.35;;;10.30;;
26157;SDS011;67284;44.782;10.282;2024-02-23T15:47:34;12.48;;;9.05;;
26157;SDS011;67284;44.782;10.282;2024-02-23T15:52:26;14.13;;;10.60;;
26157;SDS011;67284;44.782;10.282;2024-02-23T15:57:19;15.50;;;10.25;;
26157;SDS011;67284;44.782;10.282;2024-02-23T16:02:13;17.00;;;9.85;;
26157;SDS011;67284;44.782;10.282;2024-02-23T16:07:05;15.93;;;10.23;;
26157;SDS011;67284;44.782;10.282;2024-02-23T16:11:58;15.90;;;10.65;;
26157;SDS011;67284;44.782;10.282;2024-02-23T16:16:50;21.00;;;11.50;;
26157;SDS011;67284;44.782;10.282;2024-02-23T16:21:42;17.30;;;11.02;;
26157;SDS011;67284;44.782;10.282;2024-02-23T16:26:34;15.85;;;10.38;;
26157;SDS011;67284;44.782;10.282;2024-02-23T16:31:29;18.33;;;10.73;;
26157;SDS011;67284;44.782;10.282;2024-02-23T16:36:21;19.08;;;11.52;;
26157;SDS011;67284;44.782;10.282;2024-02-23T16:41:13;16.00;;;11.02;;
26157;SDS011;67284;44.782;10.282;2024-02-23T16:46:05;17.33;;;10.93;;
26157;SDS011;67284;44.782;10.282;2024-02-23T16:50:57;14.75;;;11.13;;
26157;SDS011;67284;44.782;10.282;2024-02-23T16:55:51;20.00;;;12.23;;
26157;SDS011;67284;44.782;10.282;2024-02-23T17:00:43;19.92;;;11.45;;
26157;SDS011;67284;44.782;10.282;2024-02-23T17:05:34;20.80;;;13.75;;
26157;SDS011;67284;44.782;10.282;2024-02-23T17:10:27;20.58;;;14.38;;
26157;SDS011;67284;44.782;10.282;2024-02-23T17:15:18;22.75;;;15.77;;
26157;SDS011;67284;44.782;10.282;2024-02-23T17:20:10;25.42;;;16.75;;
26157;SDS011;67284;44.782;10.282;2024-02-23T17:25:02;43.90;;;24.17;;
26157;SDS011;67284;44.782;10.282;2024-02-23T17:29:55;30.95;;;18.05;;
26157;SDS011;67284;44.782;10.282;2024-02-23T17:34:47;42.10;;;22.10;;
26157;SDS011;67284;44.782;10.282;2024-02-23T17:39:39;48.97;;;26.92;;
26157;SDS011;67284;44.782;10.282;2024-02-23T17:44:31;49.40;;;26.35;;
26157;SDS011;67284;44.782;10.282;2024-02-23T17:49:22;30.65;;;19.70;;
26157;SDS011;67284;44.782;10.282;2024-02-23T17:54:14;31.77;;;18.55;;
26157;SDS011;67284;44.782;10.282;2024-02-23T17:59:06;29.35;;;17.10;;
26157;SDS011;67284;44.782;10.282;2024-02-23T18:03:58;27.40;;;17.13;;
26157;SDS011;67284;44.782;10.282;2024-02-23T18:08:50;27.35;;;17.63;;
26157;SDS011;67284;44.782;10.282;2024-02-23T18:13:42;26.17;;;15.85;;
26157;SDS011;67284;44.782;10.282;2024-02-23T18:18:34;25.48;;;16.05;;
26157;SDS011;67284;44.782;10.282;2024-02-23T18:23:26;25.35;;;16.65;;
26157;SDS011;67284;44.782;10.282;2024-02-23T18:28:18;28.50;;;15.50;;
26157;SDS011;67284;44.782;10.282;2024-02-23T18:33:10;23.33;;;15.13;;
26157;SDS011;67284;44.782;10.282;2024-02-23T18:38:02;27.95;;;15.93;;
26157;SDS011;67284;44.782;10.282;2024-02-23T18:42:54;40.15;;;21.92;;
26157;SDS011;67284;44.782;10.282;2024-02-23T18:47:46;57.10;;;24.02;;
26157;SDS011;67284;44.782;10.282;2024-02-23T18:52:39;60.38;;;26.98;;
26157;SDS011;67284;44.782;10.282;2024-02-23T18:57:31;59.63;;;29.05;;
26157;SDS011;67284;44.782;10.282;2024-02-23T19:02:23;50.88;;;27.50;;
26157;SDS011;67284;44.782;10.282;2024-02-23T19:07:15;58.25;;;30.25;;
26157;SDS011;67284;44.782;10.282;2024-02-23T19:12:07;50.88;;;25.88;;
26157;SDS011;67284;44.782;10.282;2024-02-23T19:17:01;47.03;;;27.30;;
26157;SDS011;67284;44.782;10.282;2024-02-23T19:21:53;37.17;;;21.88;;
26157;SDS011;67284;44.782;10.282;2024-02-23T19:26:45;42.25;;;21.17;;
26157;SDS011;67284;44.782;10.282;2024-02-23T19:31:37;29.58;;;18.83;;
26157;SDS011;67284;44.782;10.282;2024-02-23T19:36:29;28.70;;;16.98;;
26157;SDS011;67284;44.782;10.282;2024-02-23T19:41:21;32.83;;;18.65;;
26157;SDS011;67284;44.782;10.282;2024-02-23T19:46:13;33.10;;;18.65;;
26157;SDS011;67284;44.782;10.282;2024-02-23T19:51:08;30.27;;;17.88;;
26157;SDS011;67284;44.782;10.282;2024-02-23T19:56:01;29.63;;;16.40;;
26157;SDS011;67284;44.782;10.282;2024-02-23T20:00:53;28.63;;;17.55;;
26157;SDS011;67284;44.782;10.282;2024-02-23T20:05:44;27.38;;;17.30;;
26157;SDS011;67284;44.782;10.282;2024-02-23T20:10:36;29.95;;;17.10;;
26157;SDS011;67284;44.782;10.282;2024-02-23T20:15:30;27.20;;;16.55;;
26157;SDS011;67284;44.782;10.282;2024-02-23T20:20:22;29.80;;;18.23;;
26157;SDS011;67284;44.782;10.282;2024-02-23T20:25:14;33.45;;;21.55;;
26157;SDS011;67284;44.782;10.282;2024-02-23T20:30:06;33.47;;;19.80;;
26157;SDS011;67284;44.782;10.282;2024-02-23T20:34:58;28.80;;;17.77;;
26157;SDS011;67284;44.782;10.282;2024-02-23T20:39:51;28.00;;;18.33;;
26157;SDS011;67284;44.782;10.282;2024-02-23T20:44:43;33.28;;;19.85;;
26157;SDS011;67284;44.782;10.282;2024-02-23T20:49:35;31.90;;;20.27;;
26157;SDS011;67284;44.782;10.282;2024-02-23T20:54:27;31.33;;;19.70;;
26157;SDS011;67284;44.782;10.282;2024-02-23T20:59:20;28.65;;;19.02;;
26157;SDS011;67284;44.782;10.282;2024-02-23T21:04:11;26.42;;;16.10;;
26157;SDS011;67284;44.782;10.282;2024-02-23T21:09:04;24.90;;;15.90;;
26157;SDS011;67284;44.782;10.282;2024-02-23T21:13:55;22.75;;;15.10;;
26157;SDS011;67284;44.782;10.282;2024-02-23T21:18:47;29.20;;;17.42;;
26157;SDS011;67284;44.782;10.282;2024-02-23T21:23:39;29.83;;;17.48;;
26157;SDS011;67284;44.782;10.282;2024-02-23T21:28:31;27.40;;;16.17;;
26157;SDS011;67284;44.782;10.282;2024-02-23T21:33:23;27.15;;;16.80;;
26157;SDS011;67284;44.782;10.282;2024-02-23T21:38:15;27.83;;;16.92;;
26157;SDS011;67284;44.782;10.282;2024-02-23T21:43:07;34.22;;;19.23;;
26157;SDS011;67284;44.782;10.282;2024-02-23T21:47:59;29.98;;;17.63;;
26157;SDS011;67284;44.782;10.282;2024-02-23T21:52:51;35.25;;;19.00;;
26157;SDS011;67284;44.782;10.282;2024-02-23T21:57:43;32.50;;;18.83;;
26157;SDS011;67284;44.782;10.282;2024-02-23T22:02:35;36.72;;;19.63;;
26157;SDS011;67284;44.782;10.282;2024-02-23T22:07:28;34.65;;;20.10;;
26157;SDS011;67284;44.782;10.282;2024-02-23T22:12:20;37.70;;;22.40;;
26157;SDS011;67284;44.782;10.282;2024-02-23T22:17:11;35.63;;;20.25;;
26157;SDS011;67284;44.782;10.282;2024-02-23T22:22:03;32.22;;;18.85;;
26157;SDS011;67284;44.782;10.282;2024-02-23T22:26:55;32.22;;;18.63;;
26157;SDS011;67284;44.782;10.282;2024-02-23T22:31:47;36.10;;;19.67;;
26157;SDS011;67284;44.782;10.282;2024-02-23T22:36:39;32.72;;;18.77;;
26157;SDS011;67284;44.782;10.282;2024-02-23T22:41:31;34.05;;;17.63;;
26157;SDS011;67284;44.782;10.282;2024-02-23T22:46:26;35.75;;;18.98;;
26157;SDS011;67284;44.782;10.282;2024-02-23T22:51:18;29.67;;;18.55;;
26157;SDS011;67284;44.782;10.282;2024-02-23T22:56:10;30.90;;;17.80;;
26157;SDS011;67284;44.782;10.282;2024-02-23T23:01:02;28.92;;;17.17;;
26157;SDS011;67284;44.782;10.282;2024-02-23T23:05:54;31.98;;;18.20;;
26157;SDS011;67284;44.782;10.282;2024-02-23T23:10:46;29.02;;;15.35;;
26157;SDS011;67284;44.782;10.282;2024-02-23T23:15:38;27.48;;;16.30;;
26157;SDS011;67284;44.782;10.282;2024-02-23T23:20:30;26.60;;;15.40;;
26157;SDS011;67284;44.782;10.282;2024-02-23T23:25:22;25.80;;;15.48;;
26157;SDS011;67284;44.782;10.282;2024-02-23T23:30:14;31.27;;;15.50;;
26157;SDS011;67284;44.782;10.282;2024-02-23T23:35:06;25.30;;;15.18;;
26157;SDS011;67284;44.782;10.282;2024-02-23T23:39:58;24.08;;;14.80;;
26157;SDS011;67284;44.782;10.282;2024-02-23T23:44:50;27.20;;;13.80;;
26157;SDS011;67284;44.782;10.282;2024-02-23T23:49:42;23.63;;;13.85;;
26157;SDS011;67284;44.782;10.282;2024-02-23T23:54:34;19.52;;;12.63;;
26157;SDS011;67284;44.782;10.282;2024-02-23T23:59:26;26.88;;;14.57;;
